sensor_id;sensor_type;location;lat;lon;timestamp;pressure;altitude;pressure_sealevel;temperature;humidity
76808;BME280;65758;45.458;11.062;2023-04-26T00:01:57;100611.60;;;10.56;67.73
76808;BME280;65758;45.458;11.062;2023-04-26T00:04:23;100608.69;;;10.60;67.16
76808;BME280;65758;45.458;11.062;2023-04-26T00:06:51;100610.24;;;10.61;67.36
76808;BME280;65758;45.458;11.062;2023-04-26T00:09:17;100611.38;;;10.62;67.24
76808;BME280;65758;45.458;11.062;2023-04-26T00:11:45;100609.56;;;10.62;67.38
76808;BME280;65758;45.458;11.062;2023-04-26T00:14:12;100606.33;;;10.61;67.28
76808;BME280;65758;45.458;11.062;2023-04-26T00:16:39;100613.04;;;10.61;67.16
76808;BME280;65758;45.458;11.062;2023-04-26T00:19:06;100605.45;;;10.60;67.09
76808;BME280;65758;45.458;11.062;2023-04-26T00:21:33;100612.77;;;10.56;66.89
76808;BME280;65758;45.458;11.062;2023-04-26T00:23:59;100612.98;;;10.53;66.51
76808;BME280;65758;45.458;11.062;2023-04-26T00:26:26;100613.38;;;10.48;66.91
76808;BME280;65758;45.458;11.062;2023-04-26T00:28:53;100613.13;;;10.45;66.84
76808;BME280;65758;45.458;11.062;2023-04-26T00:31:20;100605.75;;;10.45;67.15
76808;BME280;65758;45.458;11.062;2023-04-26T00:33:47;100609.01;;;10.46;67.32
76808;BME280;65758;45.458;11.062;2023-04-26T00:36:13;100606.70;;;10.47;67.13
76808;BME280;65758;45.458;11.062;2023-04-26T00:38:42;100606.48;;;10.46;67.21
76808;BME280;65758;45.458;11.062;2023-04-26T00:41:09;100609.59;;;10.45;66.88
76808;BME280;65758;45.458;11.062;2023-04-26T00:43:35;100607.38;;;10.47;66.55
76808;BME280;65758;45.458;11.062;2023-04-26T00:46:02;100614.04;;;10.46;66.23
76808;BME280;65758;45.458;11.062;2023-04-26T00:48:29;100618.99;;;10.43;66.00
76808;BME280;65758;45.458;11.062;2023-04-26T00:50:56;100621.09;;;10.42;65.86
76808;BME280;65758;45.458;11.062;2023-04-26T00:53:23;100619.49;;;10.40;65.83
76808;BME280;65758;45.458;11.062;2023-04-26T00:55:50;100624.27;;;10.39;65.72
76808;BME280;65758;45.458;11.062;2023-04-26T00:58:17;100627.11;;;10.37;66.03
76808;BME280;65758;45.458;11.062;2023-04-26T01:00:44;100626.77;;;10.38;65.97
76808;BME280;65758;45.458;11.062;2023-04-26T01:03:11;100626.60;;;10.38;65.78
76808;BME280;65758;45.458;11.062;2023-04-26T01:05:39;100627.58;;;10.36;66.12
76808;BME280;65758;45.458;11.062;2023-04-26T01:08:05;100630.17;;;10.35;65.67
76808;BME280;65758;45.458;11.062;2023-04-26T01:10:33;100634.02;;;10.37;65.90
76808;BME280;65758;45.458;11.062;2023-04-26T01:13:01;100633.76;;;10.37;65.49
76808;BME280;65758;45.458;11.062;2023-04-26T01:15:29;100636.38;;;10.39;66.01
76808;BME280;65758;45.458;11.062;2023-04-26T01:17:59;100636.90;;;10.40;65.48
76808;BME280;65758;45.458;11.062;2023-04-26T01:20:26;100639.16;;;10.39;65.47
76808;BME280;65758;45.458;11.062;2023-04-26T01:22:53;100641.34;;;10.39;65.42
76808;BME280;65758;45.458;11.062;2023-04-26T01:29:33;100648.69;;;10.30;64.58
76808;BME280;65758;45.458;11.062;2023-04-26T01:32:03;100650.19;;;10.24;63.96
76808;BME280;65758;45.458;11.062;2023-04-26T01:34:30;100651.46;;;10.18;64.36
76808;BME280;65758;45.458;11.062;2023-04-26T01:36:59;100656.21;;;10.12;64.14
76808;BME280;65758;45.458;11.062;2023-04-26T01:39:26;100657.73;;;10.06;64.17
76808;BME280;65758;45.458;11.062;2023-04-26T01:41:56;100663.68;;;9.97;64.54
76808;BME280;65758;45.458;11.062;2023-04-26T01:44:24;100665.72;;;9.89;64.46
76808;BME280;65758;45.458;11.062;2023-04-26T01:46:50;100671.62;;;9.84;64.51
76808;BME280;65758;45.458;11.062;2023-04-26T01:49:17;100673.30;;;9.80;64.88
76808;BME280;65758;45.458;11.062;2023-04-26T01:51:45;100674.05;;;9.78;64.77
76808;BME280;65758;45.458;11.062;2023-04-26T01:54:12;100668.68;;;9.78;64.88
76808;BME280;65758;45.458;11.062;2023-04-26T01:56:39;100670.61;;;9.78;64.78
76808;BME280;65758;45.458;11.062;2023-04-26T01:59:06;100672.13;;;9.83;64.95
76808;BME280;65758;45.458;11.062;2023-04-26T02:01:32;100674.41;;;9.86;64.90
76808;BME280;65758;45.458;11.062;2023-04-26T02:03:59;100680.45;;;9.87;64.54
76808;BME280;65758;45.458;11.062;2023-04-26T02:06:26;100682.84;;;9.84;64.65
76808;BME280;65758;45.458;11.062;2023-04-26T02:08:53;100684.70;;;9.83;64.22
76808;BME280;65758;45.458;11.062;2023-04-26T02:11:20;100686.15;;;9.80;64.31
76808;BME280;65758;45.458;11.062;2023-04-26T02:13:50;100682.61;;;9.77;64.26
76808;BME280;65758;45.458;11.062;2023-04-26T02:16:19;100682.98;;;9.72;64.13
76808;BME280;65758;45.458;11.062;2023-04-26T02:18:47;100681.48;;;9.67;64.21
76808;BME280;65758;45.458;11.062;2023-04-26T02:21:16;100683.36;;;9.62;64.36
76808;BME280;65758;45.458;11.062;2023-04-26T02:23:46;100678.10;;;9.57;64.14
76808;BME280;65758;45.458;11.062;2023-04-26T02:26:13;100679.79;;;9.50;64.33
76808;BME280;65758;45.458;11.062;2023-04-26T02:28:42;100676.17;;;9.45;64.29
76808;BME280;65758;45.458;11.062;2023-04-26T02:31:08;100677.30;;;9.41;64.38
76808;BME280;65758;45.458;11.062;2023-04-26T02:33:35;100676.36;;;9.38;64.20
76808;BME280;65758;45.458;11.062;2023-04-26T02:36:03;100672.14;;;9.33;64.14
76808;BME280;65758;45.458;11.062;2023-04-26T02:38:33;100676.36;;;9.29;64.19
76808;BME280;65758;45.458;11.062;2023-04-26T02:41:02;100677.09;;;9.28;64.20
76808;BME280;65758;45.458;11.062;2023-04-26T02:43:29;100675.00;;;9.26;64.10
76808;BME280;65758;45.458;11.062;2023-04-26T02:45:57;100675.52;;;9.26;64.43
76808;BME280;65758;45.458;11.062;2023-04-26T02:48:27;100673.61;;;9.27;64.23
76808;BME280;65758;45.458;11.062;2023-04-26T02:50:55;100674.95;;;9.27;63.92
76808;BME280;65758;45.458;11.062;2023-04-26T02:53:22;100675.45;;;9.29;63.58
76808;BME280;65758;45.458;11.062;2023-04-26T02:55:49;100678.45;;;9.32;63.67
76808;BME280;65758;45.458;11.062;2023-04-26T02:58:16;100679.17;;;9.36;63.45
76808;BME280;65758;45.458;11.062;2023-04-26T03:00:46;100679.09;;;9.36;63.45
76808;BME280;65758;45.458;11.062;2023-04-26T03:03:14;100683.77;;;9.33;63.21
76808;BME280;65758;45.458;11.062;2023-04-26T03:05:43;100683.61;;;9.32;63.24
76808;BME280;65758;45.458;11.062;2023-04-26T03:08:10;100683.56;;;9.27;62.72
76808;BME280;65758;45.458;11.062;2023-04-26T03:10:37;100680.34;;;9.19;62.35
76808;BME280;65758;45.458;11.062;2023-04-26T03:13:04;100683.45;;;9.13;62.54
76808;BME280;65758;45.458;11.062;2023-04-26T03:15:31;100689.27;;;9.13;62.57
76808;BME280;65758;45.458;11.062;2023-04-26T03:17:58;100691.52;;;9.09;62.36
76808;BME280;65758;45.458;11.062;2023-04-26T03:20:26;100691.38;;;9.06;62.02
76808;BME280;65758;45.458;11.062;2023-04-26T03:22:53;100688.63;;;9.01;62.22
76808;BME280;65758;45.458;11.062;2023-04-26T03:25:20;100690.16;;;8.99;62.14
76808;BME280;65758;45.458;11.062;2023-04-26T03:27:47;100694.13;;;8.95;62.16
76808;BME280;65758;45.458;11.062;2023-04-26T03:30:14;100696.30;;;8.94;62.52
76808;BME280;65758;45.458;11.062;2023-04-26T03:32:42;100698.65;;;8.96;62.51
76808;BME280;65758;45.458;11.062;2023-04-26T03:35:09;100699.77;;;8.97;62.66
76808;BME280;65758;45.458;11.062;2023-04-26T03:37:36;100702.45;;;8.98;62.69
76808;BME280;65758;45.458;11.062;2023-04-26T03:40:07;100701.06;;;8.98;62.72
76808;BME280;65758;45.458;11.062;2023-04-26T03:42:35;100706.83;;;8.99;63.23
76808;BME280;65758;45.458;11.062;2023-04-26T03:45:03;100711.95;;;9.02;63.20
76808;BME280;65758;45.458;11.062;2023-04-26T03:47:30;100706.55;;;9.04;62.83
76808;BME280;65758;45.458;11.062;2023-04-26T03:49:57;100710.98;;;9.07;63.27
76808;BME280;65758;45.458;11.062;2023-04-26T03:52:24;100714.68;;;9.13;63.15
76808;BME280;65758;45.458;11.062;2023-04-26T03:54:51;100718.84;;;9.22;63.18
76808;BME280;65758;45.458;11.062;2023-04-26T03:57:17;100719.38;;;9.28;62.77
76808;BME280;65758;45.458;11.062;2023-04-26T03:59:44;100724.31;;;9.32;62.95
76808;BME280;65758;45.458;11.062;2023-04-26T04:02:11;100728.55;;;9.34;62.34
76808;BME280;65758;45.458;11.062;2023-04-26T04:04:39;100725.56;;;9.30;61.90
76808;BME280;65758;45.458;11.062;2023-04-26T04:07:06;100726.58;;;9.27;61.88
76808;BME280;65758;45.458;11.062;2023-04-26T04:09:33;100728.87;;;9.23;61.88
76808;BME280;65758;45.458;11.062;2023-04-26T04:12:00;100733.63;;;9.19;61.81
76808;BME280;65758;45.458;11.062;2023-04-26T04:14:27;100742.39;;;9.15;61.99
76808;BME280;65758;45.458;11.062;2023-04-26T04:16:54;100746.60;;;9.14;61.82
76808;BME280;65758;45.458;11.062;2023-04-26T04:19:21;100751.13;;;9.14;61.69
76808;BME280;65758;45.458;11.062;2023-04-26T04:21:48;100751.97;;;9.13;61.73
76808;BME280;65758;45.458;11.062;2023-04-26T04:24:14;100752.60;;;9.14;61.96
76808;BME280;65758;45.458;11.062;2023-04-26T04:26:41;100755.96;;;9.13;61.56
76808;BME280;65758;45.458;11.062;2023-04-26T04:29:08;100757.90;;;9.10;62.08
76808;BME280;65758;45.458;11.062;2023-04-26T04:31:36;100762.02;;;9.09;62.06
76808;BME280;65758;45.458;11.062;2023-04-26T04:34:06;100764.90;;;9.07;62.30
76808;BME280;65758;45.458;11.062;2023-04-26T04:36:34;100769.23;;;9.07;62.92
76808;BME280;65758;45.458;11.062;2023-04-26T04:39:01;100769.10;;;9.04;62.68
76808;BME280;65758;45.458;11.062;2023-04-26T04:41:29;100771.88;;;8.93;62.61
76808;BME280;65758;45.458;11.062;2023-04-26T04:43:57;100775.60;;;8.85;62.35
76808;BME280;65758;45.458;11.062;2023-04-26T04:46:25;100774.77;;;8.78;62.31
76808;BME280;65758;45.458;11.062;2023-04-26T04:48:52;100776.43;;;8.73;62.60
76808;BME280;65758;45.458;11.062;2023-04-26T04:51:19;100776.30;;;8.74;62.60
76808;BME280;65758;45.458;11.062;2023-04-26T04:53:46;100776.93;;;8.77;62.75
76808;BME280;65758;45.458;11.062;2023-04-26T04:56:13;100781.52;;;8.82;62.87
76808;BME280;65758;45.458;11.062;2023-04-26T04:58:41;100781.72;;;8.87;62.57
76808;BME280;65758;45.458;11.062;2023-04-26T05:01:08;100782.28;;;8.92;62.81
76808;BME280;65758;45.458;11.062;2023-04-26T05:03:44;100786.97;;;9.00;62.33
76808;BME280;65758;45.458;11.062;2023-04-26T05:06:11;100786.88;;;9.02;62.05
76808;BME280;65758;45.458;11.062;2023-04-26T05:08:38;100788.42;;;9.04;62.08
76808;BME280;65758;45.458;11.062;2023-04-26T05:11:07;100789.67;;;9.07;62.03
76808;BME280;65758;45.458;11.062;2023-04-26T05:13:33;100795.16;;;9.13;62.25
76808;BME280;65758;45.458;11.062;2023-04-26T05:16:00;100796.54;;;9.22;63.18
76808;BME280;65758;45.458;11.062;2023-04-26T05:18:28;100803.71;;;9.35;62.85
76808;BME280;65758;45.458;11.062;2023-04-26T05:20:56;100800.85;;;9.43;62.37
76808;BME280;65758;45.458;11.062;2023-04-26T05:23:24;100797.85;;;9.55;62.26
76808;BME280;65758;45.458;11.062;2023-04-26T05:25:51;100805.13;;;9.58;61.31
76808;BME280;65758;45.458;11.062;2023-04-26T05:33:03;100818.05;;;9.64;61.43
76808;BME280;65758;45.458;11.062;2023-04-26T05:40:07;100836.67;;;9.79;60.78
76808;BME280;65758;45.458;11.062;2023-04-26T05:42:35;100837.02;;;9.83;60.25
76808;BME280;65758;45.458;11.062;2023-04-26T05:45:03;100843.78;;;9.85;61.13
76808;BME280;65758;45.458;11.062;2023-04-26T05:47:33;100846.46;;;9.88;62.68
76808;BME280;65758;45.458;11.062;2023-04-26T05:49:59;100849.58;;;9.93;62.84
76808;BME280;65758;45.458;11.062;2023-04-26T05:52:26;100844.77;;;9.96;63.14
76808;BME280;65758;45.458;11.062;2023-04-26T05:54:53;100843.39;;;10.00;63.03
76808;BME280;65758;45.458;11.062;2023-04-26T05:57:20;100845.83;;;10.06;62.89
76808;BME280;65758;45.458;11.062;2023-04-26T05:59:47;100843.69;;;10.12;62.67
76808;BME280;65758;45.458;11.062;2023-04-26T06:02:15;100845.84;;;10.22;62.25
76808;BME280;65758;45.458;11.062;2023-04-26T06:04:42;100844.70;;;10.33;62.20
76808;BME280;65758;45.458;11.062;2023-04-26T06:07:11;100846.79;;;10.44;62.42
76808;BME280;65758;45.458;11.062;2023-04-26T06:09:38;100844.86;;;10.58;62.38
76808;BME280;65758;45.458;11.062;2023-04-26T06:12:05;100854.54;;;10.73;61.92
76808;BME280;65758;45.458;11.062;2023-04-26T06:14:34;100855.15;;;10.84;61.69
76808;BME280;65758;45.458;11.062;2023-04-26T06:17:04;100856.97;;;10.95;61.35
76808;BME280;65758;45.458;11.062;2023-04-26T06:19:31;100861.31;;;11.06;61.62
76808;BME280;65758;45.458;11.062;2023-04-26T06:21:57;100863.48;;;11.16;61.74
76808;BME280;65758;45.458;11.062;2023-04-26T06:24:24;100864.25;;;11.26;61.58
76808;BME280;65758;45.458;11.062;2023-04-26T06:26:51;100863.77;;;11.31;61.29
76808;BME280;65758;45.458;11.062;2023-04-26T06:29:19;100869.38;;;11.38;61.64
76808;BME280;65758;45.458;11.062;2023-04-26T06:31:47;100868.71;;;11.48;61.54
76808;BME280;65758;45.458;11.062;2023-04-26T06:34:13;100870.70;;;11.64;61.65
76808;BME280;65758;45.458;11.062;2023-04-26T06:36:40;100871.95;;;11.84;61.93
76808;BME280;65758;45.458;11.062;2023-04-26T06:39:08;100870.59;;;12.08;61.94
76808;BME280;65758;45.458;11.062;2023-04-26T06:41:36;100872.27;;;12.36;61.63
76808;BME280;65758;45.458;11.062;2023-04-26T06:44:03;100875.03;;;12.66;61.87
76808;BME280;65758;45.458;11.062;2023-04-26T06:46:30;100872.44;;;12.97;61.32
76808;BME280;65758;45.458;11.062;2023-04-26T06:48:57;100876.36;;;13.28;60.94
76808;BME280;65758;45.458;11.062;2023-04-26T06:51:24;100876.14;;;13.58;60.27
76808;BME280;65758;45.458;11.062;2023-04-26T06:53:50;100876.91;;;13.89;59.50
76808;BME280;65758;45.458;11.062;2023-04-26T06:56:18;100882.16;;;14.15;58.95
76808;BME280;65758;45.458;11.062;2023-04-26T06:59:02;100877.39;;;14.39;58.26
76808;BME280;65758;45.458;11.062;2023-04-26T07:01:30;100883.77;;;14.66;58.07
76808;BME280;65758;45.458;11.062;2023-04-26T07:04:00;100880.98;;;14.88;56.93
76808;BME280;65758;45.458;11.062;2023-04-26T07:06:29;100878.17;;;15.10;56.14
76808;BME280;65758;45.458;11.062;2023-04-26T07:08:59;100880.04;;;15.29;55.94
76808;BME280;65758;45.458;11.062;2023-04-26T07:11:29;100875.78;;;15.47;55.67
76808;BME280;65758;45.458;11.062;2023-04-26T07:18:22;100874.79;;;15.99;56.01
76808;BME280;65758;45.458;11.062;2023-04-26T07:25:16;100874.10;;;16.45;55.16
76808;BME280;65758;45.458;11.062;2023-04-26T07:27:43;100877.55;;;16.64;55.64
76808;BME280;65758;45.458;11.062;2023-04-26T07:30:10;100876.44;;;16.84;54.59
76808;BME280;65758;45.458;11.062;2023-04-26T07:32:37;100872.17;;;16.98;53.93
76808;BME280;65758;45.458;11.062;2023-04-26T07:35:05;100873.16;;;17.11;53.66
76808;BME280;65758;45.458;11.062;2023-04-26T07:37:42;100876.08;;;17.25;53.39
76808;BME280;65758;45.458;11.062;2023-04-26T07:40:12;100872.11;;;17.41;52.34
76808;BME280;65758;45.458;11.062;2023-04-26T07:42:39;100874.05;;;17.52;51.36
76808;BME280;65758;45.458;11.062;2023-04-26T07:45:06;100874.13;;;17.55;50.82
76808;BME280;65758;45.458;11.062;2023-04-26T07:47:34;100872.85;;;17.60;51.35
76808;BME280;65758;45.458;11.062;2023-04-26T07:50:01;100875.05;;;17.71;50.68
76808;BME280;65758;45.458;11.062;2023-04-26T07:52:28;100874.48;;;17.81;50.20
76808;BME280;65758;45.458;11.062;2023-04-26T07:54:54;100877.45;;;17.92;49.58
76808;BME280;65758;45.458;11.062;2023-04-26T07:57:21;100876.73;;;18.04;49.85
76808;BME280;65758;45.458;11.062;2023-04-26T07:59:48;100873.52;;;18.16;49.55
76808;BME280;65758;45.458;11.062;2023-04-26T08:02:14;100871.68;;;18.32;49.86
76808;BME280;65758;45.458;11.062;2023-04-26T08:04:47;100869.43;;;18.49;47.54
76808;BME280;65758;45.458;11.062;2023-04-26T08:07:21;100865.03;;;18.63;46.10
76808;BME280;65758;45.458;11.062;2023-04-26T08:09:48;100866.09;;;18.72;44.34
76808;BME280;65758;45.458;11.062;2023-04-26T08:12:15;100868.65;;;18.73;43.60
76808;BME280;65758;45.458;11.062;2023-04-26T08:14:41;100869.80;;;18.81;43.41
76808;BME280;65758;45.458;11.062;2023-04-26T08:17:08;100869.95;;;18.90;43.55
76808;BME280;65758;45.458;11.062;2023-04-26T08:19:35;100868.95;;;19.00;43.27
76808;BME280;65758;45.458;11.062;2023-04-26T08:22:02;100871.39;;;19.08;43.66
76808;BME280;65758;45.458;11.062;2023-04-26T08:24:29;100873.02;;;19.16;42.89
76808;BME280;65758;45.458;11.062;2023-04-26T08:26:56;100869.25;;;19.21;42.73
76808;BME280;65758;45.458;11.062;2023-04-26T08:29:25;100871.40;;;19.27;41.93
76808;BME280;65758;45.458;11.062;2023-04-26T08:31:53;100869.71;;;19.32;41.50
76808;BME280;65758;45.458;11.062;2023-04-26T08:34:20;100870.87;;;19.37;41.28
76808;BME280;65758;45.458;11.062;2023-04-26T08:36:46;100873.14;;;19.42;41.52
76808;BME280;65758;45.458;11.062;2023-04-26T08:39:13;100874.23;;;19.51;41.68
76808;BME280;65758;45.458;11.062;2023-04-26T08:41:42;100873.60;;;19.61;41.18
76808;BME280;65758;45.458;11.062;2023-04-26T08:44:10;100874.73;;;19.69;40.80
76808;BME280;65758;45.458;11.062;2023-04-26T08:46:46;100877.75;;;19.76;41.58
76808;BME280;65758;45.458;11.062;2023-04-26T08:51:51;100878.16;;;19.97;41.88
76808;BME280;65758;45.458;11.062;2023-04-26T08:54:19;100885.14;;;20.03;41.70
76808;BME280;65758;45.458;11.062;2023-04-26T08:56:45;100882.51;;;20.07;41.36
76808;BME280;65758;45.458;11.062;2023-04-26T08:59:12;100885.38;;;20.09;40.88
76808;BME280;65758;45.458;11.062;2023-04-26T09:01:42;100886.19;;;20.12;41.12
76808;BME280;65758;45.458;11.062;2023-04-26T09:04:10;100887.59;;;20.19;41.37
76808;BME280;65758;45.458;11.062;2023-04-26T09:06:39;100889.01;;;20.29;41.08
76808;BME280;65758;45.458;11.062;2023-04-26T09:09:11;100888.91;;;20.37;40.90
76808;BME280;65758;45.458;11.062;2023-04-26T09:14:19;100892.66;;;20.57;40.58
76808;BME280;65758;45.458;11.062;2023-04-26T09:16:46;100890.88;;;20.65;40.59
76808;BME280;65758;45.458;11.062;2023-04-26T09:19:13;100890.33;;;20.77;40.81
76808;BME280;65758;45.458;11.062;2023-04-26T09:21:43;100890.77;;;20.84;40.87
76808;BME280;65758;45.458;11.062;2023-04-26T09:24:12;100890.81;;;20.91;41.07
76808;BME280;65758;45.458;11.062;2023-04-26T09:26:39;100894.39;;;20.96;40.78
76808;BME280;65758;45.458;11.062;2023-04-26T09:29:14;100896.04;;;21.05;40.61
76808;BME280;65758;45.458;11.062;2023-04-26T09:31:44;100891.71;;;21.11;40.50
76808;BME280;65758;45.458;11.062;2023-04-26T09:34:15;100892.61;;;21.18;40.85
76808;BME280;65758;45.458;11.062;2023-04-26T09:36:46;100890.38;;;21.23;41.02
76808;BME280;65758;45.458;11.062;2023-04-26T09:39:13;100888.55;;;21.27;40.82
76808;BME280;65758;45.458;11.062;2023-04-26T09:41:44;100890.82;;;21.29;40.96
76808;BME280;65758;45.458;11.062;2023-04-26T09:44:24;100888.84;;;21.27;40.34
76808;BME280;65758;45.458;11.062;2023-04-26T09:46:58;100889.62;;;21.27;41.46
76808;BME280;65758;45.458;11.062;2023-04-26T09:49:51;100887.91;;;21.35;43.12
76808;BME280;65758;45.458;11.062;2023-04-26T09:52:18;100884.02;;;21.42;42.36
76808;BME280;65758;45.458;11.062;2023-04-26T09:54:47;100886.35;;;21.41;42.04
76808;BME280;65758;45.458;11.062;2023-04-26T09:57:15;100889.99;;;21.43;41.83
76808;BME280;65758;45.458;11.062;2023-04-26T09:59:48;100885.14;;;21.43;41.78
76808;BME280;65758;45.458;11.062;2023-04-26T10:02:20;100885.98;;;21.48;42.03
76808;BME280;65758;45.458;11.062;2023-04-26T10:04:49;100888.33;;;21.53;42.24
76808;BME280;65758;45.458;11.062;2023-04-26T10:07:19;100889.38;;;21.58;42.25
76808;BME280;65758;45.458;11.062;2023-04-26T10:09:46;100891.16;;;21.63;42.00
76808;BME280;65758;45.458;11.062;2023-04-26T10:12:18;100888.79;;;21.70;42.06
76808;BME280;65758;45.458;11.062;2023-04-26T10:14:45;100891.34;;;21.80;42.82
76808;BME280;65758;45.458;11.062;2023-04-26T10:17:13;100887.51;;;21.88;43.26
76808;BME280;65758;45.458;11.062;2023-04-26T10:19:41;100886.90;;;21.98;43.41
76808;BME280;65758;45.458;11.062;2023-04-26T10:22:22;100880.07;;;22.05;42.35
76808;BME280;65758;45.458;11.062;2023-04-26T10:24:50;100881.11;;;22.07;42.55
76808;BME280;65758;45.458;11.062;2023-04-26T10:30:14;100877.95;;;22.28;41.94
76808;BME280;65758;45.458;11.062;2023-04-26T10:35:19;100872.95;;;22.38;40.93
76808;BME280;65758;45.458;11.062;2023-04-26T10:45:38;100862.94;;;22.44;41.56
76808;BME280;65758;45.458;11.062;2023-04-26T10:54:11;100859.38;;;22.65;42.67
76808;BME280;65758;45.458;11.062;2023-04-26T10:59:14;100847.33;;;22.78;41.64
76808;BME280;65758;45.458;11.062;2023-04-26T11:02:02;100847.67;;;22.81;40.81
76808;BME280;65758;45.458;11.062;2023-04-26T11:04:52;100850.61;;;22.85;41.69
76808;BME280;65758;45.458;11.062;2023-04-26T11:07:35;100848.00;;;22.94;41.18
76808;BME280;65758;45.458;11.062;2023-04-26T11:10:07;100841.81;;;23.03;39.58
76808;BME280;65758;45.458;11.062;2023-04-26T11:12:35;100844.27;;;23.08;39.98
76808;BME280;65758;45.458;11.062;2023-04-26T11:15:02;100842.18;;;23.10;40.48
76808;BME280;65758;45.458;11.062;2023-04-26T11:17:35;100839.22;;;23.16;40.41
76808;BME280;65758;45.458;11.062;2023-04-26T11:20:15;100833.27;;;23.17;40.07
76808;BME280;65758;45.458;11.062;2023-04-26T11:22:41;100831.34;;;23.16;40.29
76808;BME280;65758;45.458;11.062;2023-04-26T11:25:08;100828.92;;;23.17;41.01
76808;BME280;65758;45.458;11.062;2023-04-26T11:27:37;100824.48;;;23.22;41.22
76808;BME280;65758;45.458;11.062;2023-04-26T11:34:42;100822.11;;;23.17;39.03
76808;BME280;65758;45.458;11.062;2023-04-26T11:37:09;100821.12;;;23.19;40.58
76808;BME280;65758;45.458;11.062;2023-04-26T11:39:37;100816.05;;;23.24;40.63
76808;BME280;65758;45.458;11.062;2023-04-26T11:42:08;100814.20;;;23.29;41.21
76808;BME280;65758;45.458;11.062;2023-04-26T11:44:36;100815.63;;;23.35;41.40
76808;BME280;65758;45.458;11.062;2023-04-26T11:47:05;100812.70;;;23.42;41.50
76808;BME280;65758;45.458;11.062;2023-04-26T11:49:35;100812.27;;;23.40;40.77
76808;BME280;65758;45.458;11.062;2023-04-26T11:52:03;100817.90;;;23.35;40.19
76808;BME280;65758;45.458;11.062;2023-04-26T11:54:33;100813.15;;;23.32;40.64
76808;BME280;65758;45.458;11.062;2023-04-26T11:57:17;100811.69;;;23.35;41.28
76808;BME280;65758;45.458;11.062;2023-04-26T11:59:44;100808.39;;;23.38;41.20
76808;BME280;65758;45.458;11.062;2023-04-26T12:02:11;100805.40;;;23.44;42.25
76808;BME280;65758;45.458;11.062;2023-04-26T12:04:38;100801.35;;;23.53;41.85
76808;BME280;65758;45.458;11.062;2023-04-26T12:07:06;100802.12;;;23.61;41.11
76808;BME280;65758;45.458;11.062;2023-04-26T12:09:34;100799.41;;;23.65;40.75
76808;BME280;65758;45.458;11.062;2023-04-26T12:16:22;100800.91;;;23.79;40.47
76808;BME280;65758;45.458;11.062;2023-04-26T12:18:53;100803.23;;;23.87;39.37
76808;BME280;65758;45.458;11.062;2023-04-26T12:21:20;100803.07;;;23.95;39.74
76808;BME280;65758;45.458;11.062;2023-04-26T12:23:47;100797.44;;;24.03;39.46
76808;BME280;65758;45.458;11.062;2023-04-26T12:30:28;100796.61;;;24.16;39.91
76808;BME280;65758;45.458;11.062;2023-04-26T12:33:01;100797.35;;;24.15;40.21
76808;BME280;65758;45.458;11.062;2023-04-26T12:35:42;100798.53;;;24.18;39.85
76808;BME280;65758;45.458;11.062;2023-04-26T12:38:09;100797.33;;;24.23;39.94
76808;BME280;65758;45.458;11.062;2023-04-26T12:44:58;100792.18;;;24.21;36.99
76808;BME280;65758;45.458;11.062;2023-04-26T12:47:24;100789.27;;;24.06;37.22
76808;BME280;65758;45.458;11.062;2023-04-26T12:49:51;100792.13;;;24.01;36.63
76808;BME280;65758;45.458;11.062;2023-04-26T12:52:18;100788.83;;;23.96;36.64
76808;BME280;65758;45.458;11.062;2023-04-26T12:54:45;100790.05;;;23.97;37.61
76808;BME280;65758;45.458;11.062;2023-04-26T12:57:12;100790.02;;;23.98;37.96
76808;BME280;65758;45.458;11.062;2023-04-26T12:59:40;100788.60;;;23.94;38.10
76808;BME280;65758;45.458;11.062;2023-04-26T13:02:06;100792.10;;;23.90;38.37
76808;BME280;65758;45.458;11.062;2023-04-26T13:08:53;100792.65;;;23.93;37.98
76808;BME280;65758;45.458;11.062;2023-04-26T13:11:20;100795.52;;;23.90;37.76
76808;BME280;65758;45.458;11.062;2023-04-26T13:18:07;100787.53;;;23.80;37.55
76808;BME280;65758;45.458;11.062;2023-04-26T13:20:34;100782.69;;;23.80;37.07
76808;BME280;65758;45.458;11.062;2023-04-26T13:23:01;100777.33;;;23.80;36.12
76808;BME280;65758;45.458;11.062;2023-04-26T13:25:28;100771.73;;;23.78;36.65
76808;BME280;65758;45.458;11.062;2023-04-26T13:27:55;100771.40;;;23.78;35.94
76808;BME280;65758;45.458;11.062;2023-04-26T13:30:22;100771.52;;;23.78;35.12
76808;BME280;65758;45.458;11.062;2023-04-26T13:32:49;100766.73;;;23.85;36.23
76808;BME280;65758;45.458;11.062;2023-04-26T13:35:15;100763.48;;;23.93;36.78
76808;BME280;65758;45.458;11.062;2023-04-26T13:37:42;100760.84;;;23.93;36.56
76808;BME280;65758;45.458;11.062;2023-04-26T13:40:09;100756.36;;;23.93;36.34
76808;BME280;65758;45.458;11.062;2023-04-26T13:42:37;100754.21;;;23.90;35.99
76808;BME280;65758;45.458;11.062;2023-04-26T13:45:05;100756.91;;;23.87;34.90
76808;BME280;65758;45.458;11.062;2023-04-26T13:47:35;100755.89;;;23.79;33.97
76808;BME280;65758;45.458;11.062;2023-04-26T13:50:02;100756.09;;;23.76;35.01
76808;BME280;65758;45.458;11.062;2023-04-26T13:52:29;100757.13;;;23.72;35.93
76808;BME280;65758;45.458;11.062;2023-04-26T13:54:56;100757.23;;;23.68;35.82
76808;BME280;65758;45.458;11.062;2023-04-26T13:57:23;100758.06;;;23.63;35.75
76808;BME280;65758;45.458;11.062;2023-04-26T13:59:49;100751.78;;;23.58;36.00
76808;BME280;65758;45.458;11.062;2023-04-26T14:02:16;100747.28;;;23.57;35.80
76808;BME280;65758;45.458;11.062;2023-04-26T14:04:43;100752.29;;;23.58;36.12